METAR Data
IDs: Format: Raw Decoded Include TAF

Data at: 0646 UTC 23 Feb 2019

KBKS 230635Z AUTO 12003KT 1/2SM OVC002 19/18 A2981 RMK AO1 T01900180
KBKS 230615Z AUTO 15003KT 1/2SM OVC002 19/18 A2982 RMK AO1 T01880178
KBKS 230555Z AUTO 14003KT 1/2SM OVC002 19/18 A2983 RMK AO1 T01900180 10205 20188 402110133
KBKS 230535Z AUTO 13004KT 3/4SM OVC002 19/18 A2983 RMK AO1 T01900180
KBKS 230515Z AUTO 00000KT 1/2SM OVC002 19/18 A2984 RMK AO1 T01880178
KBKS 230455Z AUTO 12003KT 1/2SM OVC002 19/18 A2984 RMK AO1 T01880177
KBKS 230435Z AUTO 09003KT 3/4SM OVC002 19/18 A2984 RMK AO1 T01880177
KBKS 230415Z AUTO 00000KT 1 1/4SM OVC002 19/18 A2985 RMK AO1 T01880176
KBKS 230355Z AUTO 00000KT 1 3/4SM OVC002 19/18 A2985 RMK AO1 T01900177
KBKS 230335Z AUTO 11005KT 2SM OVC002 19/18 A2985 RMK AO1 T01900177
KBKS 230315Z AUTO 11005KT 2 1/2SM OVC002 19/18 A2985 RMK AO1 T01900176
KBKS 230255Z AUTO 10006KT 3SM OVC004 19/18 A2985 RMK AO1 T01920176
KBKS 230235Z AUTO 09007KT 4SM BKN006 OVC017 20/18 A2985 RMK AO1 T01950176
KBKS 230215Z AUTO 10006KT 7SM SCT008 BKN022 OVC046 20/17 A2984 RMK AO1 T02000172
KBKS 230155Z AUTO 09006KT 7SM SCT010 BKN023 OVC044 20/17 A2984 RMK AO1 T02010168
KBKS 230135Z AUTO 08005KT 7SM OVC012 20/17 A2983 RMK AO1 T02020170
KBKS 230115Z AUTO 08004KT 7SM OVC010 21/17 A2983 RMK AO1 T02050171
KBKS 230055Z AUTO 08003KT 7SM OVC010 20/17 A2983 RMK AO1 T02030170
KBKS 230035Z AUTO 00000KT 7SM OVC012 21/17 A2983 RMK AO1 T02050167
KBKS 230015Z AUTO 06004KT 7SM OVC012 21/17 A2983 RMK AO1 T02050168
KBKS 222355Z AUTO 06006KT 7SM OVC012 21/17 A2982 RMK AO1 T02050170 10211 20155
KBKS 222335Z AUTO 07005KT 7SM OVC012 21/17 A2983 RMK AO1 T02050172
KBKS 222315Z AUTO 08005KT 7SM OVC012 21/17 A2982 RMK AO1 T02090168
KBKS 222255Z AUTO 05005KT 7SM OVC012 21/17 A2982 RMK AO1 T02100168
KBKS 222235Z AUTO 04005KT 7SM OVC012 21/17 A2982 RMK AO1 T02080166
KBKS 222215Z AUTO 01006KT 5SM OVC012 21/17 A2983 RMK AO1 T02090166
KBKS 222155Z AUTO 06004KT 7SM OVC012 21/17 A2983 RMK AO1 T02090167
KBKS 222135Z AUTO 04003KT 7SM OVC010 21/16 A2983 RMK AO1 T02050164
KBKS 222115Z AUTO 07003KT 7SM OVC010 20/16 A2983 RMK AO1 T02030163
KBKS 222055Z AUTO 05004KT 7SM OVC010 20/16 A2983 RMK AO1 T01990160
KBKS 222035Z AUTO 03004KT 7SM OVC008 20/16 A2984 RMK AO1 T01960158
KBKS 222015Z AUTO 02005KT 5SM OVC008 19/16 A2985 RMK AO1 T01910157
KBKS 221955Z AUTO 03004KT 5SM OVC006 19/16 A2986 RMK AO1 T01870155
KBKS 221935Z AUTO 00000KT 5SM OVC006 18/15 A2987 RMK AO1 T01780149
KBKS 221915Z AUTO 02003KT 5SM OVC004 17/15 A2988 RMK AO1 T01720147
KBKS 221855Z AUTO 01003KT 4SM OVC004 17/14 A2990 RMK AO1 T01650144
KBKS 221835Z AUTO 03005KT 4SM OVC004 16/14 A2991 RMK AO1 T01590140
KBKS 221815Z AUTO 02004KT 4SM OVC004 16/14 A2992 RMK AO1 T01570141
KBKS 221755Z AUTO 02004KT 4SM OVC004 16/14 A2993 RMK AO1 T01550139 10155 20133
KBKS 221735Z AUTO 01005KT 3SM OVC004 15/14 A2993 RMK AO1 T01520138
KBKS 221715Z AUTO 36005KT 4SM OVC004 15/14 A2994 RMK AO1 T01510136
KBKS 221655Z AUTO 36005KT 4SM OVC004 15/14 A2995 RMK AO1 T01500136
KBKS 221635Z AUTO 36005KT 3SM OVC004 15/14 A2995 RMK AO1 T01470135
KBKS 221615Z AUTO 36004KT 4SM OVC004 14/13 A2995 RMK AO1 T01440131
KBKS 221555Z AUTO 01003KT 4SM OVC004 14/13 A2994 RMK AO1 T01410130
KBKS 221535Z AUTO 01004KT 4SM OVC004 14/13 A2994 RMK AO1 T01400128
KBKS 221515Z AUTO 35004KT 4SM OVC002 14/13 A2995 RMK AO1 T01380127
KBKS 221455Z AUTO 01005KT 2 1/2SM OVC002 14/13 A2994 RMK AO1 T01360126
KBKS 221435Z AUTO 36006KT 2SM OVC002 14/13 A2993 RMK AO1 T01350125
KBKS 221415Z AUTO 36006KT 1 1/2SM OVC002 14/13 A2993 RMK AO1 T01350125
KBKS 221355Z AUTO 36004KT 1 1/2SM OVC002 14/13 A2993 RMK AO1 T01350125
KBKS 221335Z AUTO 36003KT 2 1/2SM OVC002 14/13 A2992 RMK AO1 T01350125
KBKS 221315Z AUTO 01004KT 2 1/2SM OVC002 13/12 A2991 RMK AO1 T01330123
KBKS 221255Z AUTO 02004KT 3SM OVC002 13/12 A2991 RMK AO1 T01330123
KBKS 221235Z AUTO 04003KT 4SM OVC002 13/12 A2990 RMK AO1 T01330123
KBKS 221215Z AUTO 03003KT 2 1/2SM OVC002 13/12 A2989 RMK AO1 T01330123
KBKS 221155Z AUTO 03005KT 1 3/4SM OVC002 13/12 A2989 RMK AO1 T01330123 10153 20133
KBKS 221135Z AUTO 03006KT 2SM OVC002 13/12 A2989 RMK AO1 T01340124
KBKS 221115Z AUTO 02004KT 2SM OVC002 13/12 A2988 RMK AO1 T01340124
KBKS 221055Z AUTO 02006KT 1 3/4SM OVC002 14/13 A2988 RMK AO1 T01350125
KBKS 221035Z AUTO 01007KT 1 1/2SM OVC002 14/13 A2988 RMK AO1 T01350125
KBKS 221015Z AUTO 03006KT 1SM OVC002 14/13 A2988 RMK AO1 T01360126
KBKS 220955Z AUTO 01008KT 3/4SM OVC002 14/13 A2987 RMK AO1 T01380128
KBKS 220935Z AUTO 02008KT 1/2SM OVC002 14/13 A2987 RMK AO1 T01400130
KBKS 220915Z AUTO 03006KT 1/2SM OVC002 14/13 A2988 RMK AO1 T01400130
KBKS 220855Z AUTO 02005KT 3/4SM OVC002 14/13 A2988 RMK AO1 T01420132
KBKS 220835Z AUTO 02006KT 1SM OVC002 14/13 A2987 RMK AO1 T01440133
KBKS 220815Z AUTO 01007KT 1SM OVC002 15/14 A2988 RMK AO1 T01450135
KBKS 220755Z AUTO 04005KT 3/4SM OVC002 15/14 A2988 RMK AO1 T01450135
KBKS 220735Z AUTO 03003KT 1SM OVC002 15/14 A2990 RMK AO1 T01470135
KBKS 220715Z AUTO 02005KT 1 3/4SM OVC004 15/14 A2990 RMK AO1 T01490135
KBKS 220655Z AUTO 03003KT 3SM OVC004 15/14 A2990 RMK AO1 T01500135
KBKS 220635Z AUTO 03004KT 5SM OVC004 15/13 A2989 RMK AO1 T01520133
KBKS 220615Z AUTO 05005KT 4SM OVC004 15/14 A2990 RMK AO1 T01520135
KBKS 220555Z AUTO 06005KT 5SM OVC006 15/13 A2990 RMK AO1 T01530134 10173 20153 401730141
KBKS 220535Z AUTO 05007KT 5SM OVC006 15/14 A2989 RMK AO1 T01530135
KBKS 220515Z AUTO 07005KT 5SM OVC006 15/14 A2989 RMK AO1 T01530135
KBKS 220455Z AUTO 04004KT 5SM OVC006 15/13 A2989 RMK AO1 T01530133
KBKS 220435Z AUTO 07004KT 7SM OVC006 15/13 A2989 RMK AO1 T01530133
KBKS 220415Z AUTO 08003KT 7SM OVC006 15/13 A2989 RMK AO1 T01530132
KBKS 220355Z AUTO 08006KT 7SM OVC006 16/13 A2988 RMK AO1 T01550134
KBKS 220335Z AUTO 07007KT 7SM OVC008 16/14 A2988 RMK AO1 T01550135
KBKS 220315Z AUTO 07007KT 7SM OVC008 16/14 A2988 RMK AO1 T01580135
KBKS 220255Z AUTO 08006KT 10SM OVC008 16/14 A2987 RMK AO1 T01600135
KBKS 220235Z AUTO 08006KT 10SM OVC010 16/14 A2986 RMK AO1 T01600135
KBKS 220215Z AUTO 07008KT 10SM OVC010 16/14 A2986 RMK AO1 T01630135
KBKS 220155Z AUTO 07005KT 10SM OVC010 17/14 A2986 RMK AO1 T01650135
KBKS 220135Z AUTO 07005KT 10SM OVC010 17/14 A2985 RMK AO1 T01660135
KBKS 220115Z AUTO 09007KT 10SM OVC012 17/14 A2984 RMK AO1 T01680135
KBKS 220055Z AUTO 07007KT 10SM OVC012 17/13 A2983 RMK AO1 T01700134
KBKS 220035Z AUTO 07007KT 10SM OVC014 17/13 A2982 RMK AO1 T01720134
KBKS 220015Z AUTO 06008KT 10SM OVC014 17/13 A2981 RMK AO1 T01730131
KBKS 212355Z AUTO 08008KT 10SM OVC014 17/13 A2980 RMK AO1 T01720131 10172 20146
KBKS 212335Z AUTO 06006KT 10SM OVC014 17/13 A2981 RMK AO1 T01710130
KBKS 212315Z AUTO 05008KT 10SM BKN012 OVC035 17/13 A2981 RMK AO1 T01710131
KBKS 212255Z AUTO 02008KT 10SM BKN012 OVC033 17/13 A2980 RMK AO1 T01710130
KBKS 212235Z AUTO 05006KT 10SM OVC012 17/13 A2981 RMK AO1 T01690131
KBKS 212215Z AUTO 05008KT 10SM OVC014 17/13 A2981 RMK AO1 T01710131
KBKS 212155Z AUTO 05006KT 10SM OVC014 17/13 A2982 RMK AO1 T01720129
KBKS 212135Z AUTO 04008KT 10SM OVC014 17/12 A2982 RMK AO1 T01670124
KBKS 212115Z AUTO 04006KT 10SM OVC014 17/12 A2983 RMK AO1 T01660123
KBKS 212055Z AUTO 04005KT 10SM OVC014 16/12 A2983 RMK AO1 T01630123
KBKS 212035Z AUTO 35004KT 10SM OVC012 16/12 A2984 RMK AO1 T01590122
KBKS 212015Z AUTO 02005KT 10SM OVC012 16/12 A2984 RMK AO1 T01570121
KBKS 211955Z AUTO 02004KT 10SM OVC014 16/12 A2985 RMK AO1 T01550120
KBKS 211935Z AUTO 36003KT 10SM BKN009 OVC014 16/12 A2986 RMK AO1 T01550120
KBKS 211915Z AUTO 04006KT 10SM BKN008 OVC015 15/13 A2987 RMK AO1 T01540125
KBKS 211855Z AUTO 02005KT 5SM OVC010 15/12 A2988 RMK AO1 T01480123